Time;durP1;ratioP1;P1;durP2;ratioP2;P2;SDS_P1;SDS_P2;PMS_P1;PMS_P2;Temp;Humidity;BMP_temperature;BMP_pressure;BME280_temperature;BME280_humidity;BME280_pressure;Samples;Min_cycle;Max_cycle;Signal;HPM_P1;HPM_P2
2023/02/23 00:01:34;;;;;;;;;;;;;;;6.94;85.84;99814.81;5135855;27;1581;-73
2023/02/23 00:04:01;;;;;;;;;;;;;;;6.88;85.91;99810.03;5149918;27;1013;-73
2023/02/23 00:06:28;;;;;;;;;;;;;;;6.81;87.39;99809.97;5135732;27;1101;-73
2023/02/23 00:08:56;;;;;;;;;;;;;;;6.80;87.25;99808.38;5154190;27;1037;-73
2023/02/23 00:11:23;;;;;;;;;;;;;;;6.72;88.26;99808.31;5154151;27;888;-73
2023/02/23 00:13:49;;;;;;;;;;;;;;;6.71;88.67;99808.69;5153735;27;1988;-73
2023/02/23 00:16:17;;;;;;;;;;;;;;;6.67;88.63;99807.84;5154091;27;815;-75
2023/02/23 00:18:47;;;;;;;;;;;;;;;6.58;89.70;99804.63;5154102;27;778;-72
2023/02/23 00:21:21;;;;;;;;;;;;;;;6.57;89.63;99806.53;5154160;27;884;-72
2023/02/23 00:23:51;;;;;;;;;;;;;;;6.48;90.79;99811.56;5153988;27;786;-73
2023/02/23 00:26:22;;;;;;;;;;;;;;;6.39;91.73;99808.31;5154221;27;894;-75
2023/02/23 00:28:52;;;;;;;;;;;;;;;6.32;93.92;99809.81;5154133;27;900;-74
2023/02/23 00:31:22;;;;;;;;;;;;;;;6.31;95.56;99810.94;5153386;27;953;-73
2023/02/23 00:33:50;;;;;;;;;;;;;;;6.33;97.37;99808.63;5153706;27;1954;-72
2023/02/23 00:36:17;;;;;;;;;;;;;;;6.37;98.28;99807.91;5153758;27;798;-74
2023/02/23 00:38:44;;;;;;;;;;;;;;;6.31;98.82;99810.94;5153683;27;873;-73
2023/02/23 00:41:12;;;;;;;;;;;;;;;6.28;100.00;99808.97;5153645;27;877;-73
2023/02/23 00:43:49;;;;;;;;;;;;;;;6.14;100.00;99806.03;5153596;27;848;-72
2023/02/23 00:46:16;;;;;;;;;;;;;;;6.01;100.00;99810.19;5153632;27;872;-75
2023/02/23 00:48:44;;;;;;;;;;;;;;;5.93;100.00;99803.75;5153346;27;853;-73
2023/02/23 00:51:11;;;;;;;;;;;;;;;5.84;100.00;99806.00;5153459;27;832;-73
2023/02/23 00:53:38;;;;;;;;;;;;;;;5.77;100.00;99801.19;5153419;27;1885;-73
2023/02/23 00:56:05;;;;;;;;;;;;;;;5.66;100.00;99798.31;5153453;27;817;-72
2023/02/23 00:58:32;;;;;;;;;;;;;;;5.53;100.00;99794.97;5153378;27;763;-73
2023/02/23 01:00:58;;;;;;;;;;;;;;;5.50;100.00;99800.41;5153394;27;936;-74
2023/02/23 01:03:25;;;;;;;;;;;;;;;5.42;100.00;99799.50;5153442;27;841;-74
2023/02/23 01:05:54;;;;;;;;;;;;;;;5.43;100.00;99789.34;5153330;27;902;-73
2023/02/23 01:08:23;;;;;;;;;;;;;;;5.38;100.00;99797.88;5153308;27;817;-73
2023/02/23 01:10:52;;;;;;;;;;;;;;;5.38;100.00;99792.41;5153635;27;813;-72
2023/02/23 01:13:19;;;;;;;;;;;;;;;5.32;100.00;99795.44;5131114;28;1906;-72
2023/02/23 01:15:51;;;;;;;;;;;;;;;5.26;100.00;99799.63;5131323;28;1314;-72
2023/02/23 01:18:17;;;;;;;;;;;;;;;5.35;100.00;99795.84;5132691;27;817;-72
2023/02/23 01:20:44;;;;;;;;;;;;;;;5.25;100.00;99786.31;5132480;28;782;-72
2023/02/23 01:23:15;;;;;;;;;;;;;;;5.07;100.00;99795.00;5132206;28;1488;-72
2023/02/23 01:25:43;;;;;;;;;;;;;;;5.03;100.00;99801.59;5132751;28;879;-70
2023/02/23 01:28:10;;;;;;;;;;;;;;;4.96;100.00;99794.03;5132424;28;868;-72
2023/02/23 01:30:37;;;;;;;;;;;;;;;5.00;100.00;99796.84;5132625;28;805;-72
2023/02/23 01:33:04;;;;;;;;;;;;;;;5.02;100.00;99791.78;5132429;28;1894;-74
2023/02/23 01:35:32;;;;;;;;;;;;;;;4.94;100.00;99795.56;5132325;28;789;-73
2023/02/23 01:37:58;;;;;;;;;;;;;;;4.97;100.00;99795.63;5132323;28;849;-72
2023/02/23 01:40:28;;;;;;;;;;;;;;;5.02;100.00;99792.59;5130958;28;1261;-72
2023/02/23 01:42:59;;;;;;;;;;;;;;;5.14;100.00;99799.03;5132403;28;814;-73
2023/02/23 01:45:31;;;;;;;;;;;;;;;5.13;100.00;99794.72;5132230;28;805;-73
2023/02/23 01:48:04;;;;;;;;;;;;;;;5.21;100.00;99790.94;5132202;28;800;-74
2023/02/23 01:50:36;;;;;;;;;;;;;;;5.28;100.00;99791.06;5132621;28;810;-73
2023/02/23 01:53:02;;;;;;;;;;;;;;;5.24;100.00;99793.72;5132055;28;1885;-74
2023/02/23 01:55:29;;;;;;;;;;;;;;;5.18;100.00;99789.72;5132183;28;1054;-73
2023/02/23 01:58:00;;;;;;;;;;;;;;;5.11;100.00;99798.59;5130902;28;869;-72
2023/02/23 02:00:27;;;;;;;;;;;;;;;5.07;100.00;99796.97;5133832;27;924;-73
2023/02/23 02:02:53;;;;;;;;;;;;;;;5.15;100.00;99801.41;5135955;27;806;-72
2023/02/23 02:05:20;;;;;;;;;;;;;;;5.29;100.00;99800.84;5136033;27;842;-73
2023/02/23 02:07:49;;;;;;;;;;;;;;;5.32;100.00;99802.88;5134624;27;1177;-72
2023/02/23 02:12:46;;;;;;;;;;;;;;;5.36;100.00;99800.19;5136580;27;1992;-72
2023/02/23 02:15:18;;;;;;;;;;;;;;;5.43;100.00;99800.28;5138053;27;794;-72
2023/02/23 02:18:08;;;;;;;;;;;;;;;5.46;100.00;99800.34;5156404;27;849;-72
2023/02/23 02:20:43;;;;;;;;;;;;;;;5.39;100.00;99802.97;5142864;27;1174;-73
2023/02/23 02:23:12;;;;;;;;;;;;;;;5.36;100.00;99805.69;5154783;27;1325;-72
2023/02/23 02:25:45;;;;;;;;;;;;;;;5.39;100.00;99804.94;5156240;27;817;-72
2023/02/23 02:28:30;;;;;;;;;;;;;;;5.47;100.00;99804.66;5156195;27;786;-72
2023/02/23 02:31:34;;;;;;;;;;;;;;;5.50;100.00;99800.41;5156180;27;781;-73
2023/02/23 02:34:05;;;;;;;;;;;;;;;5.53;100.00;99800.47;5051880;28;1885;-73
2023/02/23 02:36:35;;;;;;;;;;;;;;;5.56;100.00;99795.41;5140579;27;902;-72
2023/02/23 02:39:23;;;;;;;;;;;;;;;5.53;100.00;99799.69;5155987;27;809;-72
2023/02/23 02:42:00;;;;;;;;;;;;;;;5.46;100.00;99803.09;5155967;27;871;-72
2023/02/23 02:44:38;;;;;;;;;;;;;;;5.31;100.00;99802.09;5156238;27;785;-72
2023/02/23 02:47:07;;;;;;;;;;;;;;;5.17;100.00;99801.06;5155891;27;797;-72
2023/02/23 02:49:54;;;;;;;;;;;;;;;5.11;100.00;99795.88;5155745;27;1143;-72
2023/02/23 02:52:24;;;;;;;;;;;;;;;5.17;100.00;99803.78;5155577;27;1130;-74
2023/02/23 02:54:57;;;;;;;;;;;;;;;5.04;100.00;99809.44;5155701;27;1885;-72
2023/02/23 02:57:25;;;;;;;;;;;;;;;4.91;100.00;99797.88;5155969;27;797;-73
2023/02/23 04:19:38;;;;;;;;;;;;;;;6.44;100.00;99835.44;5154270;27;836;-72
2023/02/23 04:22:05;;;;;;;;;;;;;;;6.45;100.00;99835.06;5154084;27;873;-71
2023/02/23 04:24:31;;;;;;;;;;;;;;;6.43;100.00;99833.84;5154397;27;801;-72
2023/02/23 04:26:57;;;;;;;;;;;;;;;6.42;100.00;99838.56;5153897;27;841;-72
2023/02/23 04:29:24;;;;;;;;;;;;;;;6.42;100.00;99830.34;5154201;27;865;-73
2023/02/23 04:31:50;;;;;;;;;;;;;;;6.40;100.00;99838.16;5153841;27;825;-73
2023/02/23 04:34:17;;;;;;;;;;;;;;;6.41;100.00;99836.97;5153724;27;1952;-72
2023/02/23 04:36:43;;;;;;;;;;;;;;;6.44;100.00;99829.94;5153797;27;889;-73
2023/02/23 04:39:09;;;;;;;;;;;;;;;6.48;100.00;99839.78;5153808;27;813;-71
2023/02/23 04:41:36;;;;;;;;;;;;;;;6.55;100.00;99830.88;5153619;27;857;-72
2023/02/23 04:44:03;;;;;;;;;;;;;;;6.60;100.00;99835.25;5153598;27;802;-72
2023/02/23 04:46:30;;;;;;;;;;;;;;;6.65;100.00;99837.63;5153613;27;830;-73
2023/02/23 04:48:57;;;;;;;;;;;;;;;6.70;100.00;99834.53;5153707;27;853;-74
2023/02/23 04:51:23;;;;;;;;;;;;;;;6.71;100.00;99836.16;5153651;27;853;-72
2023/02/23 04:53:50;;;;;;;;;;;;;;;6.77;100.00;99837.41;5153358;27;1967;-72
2023/02/23 04:56:16;;;;;;;;;;;;;;;6.82;100.00;99839.78;5153596;27;848;-73
2023/02/23 04:58:43;;;;;;;;;;;;;;;6.83;100.00;99837.81;5153435;27;888;-72
2023/02/23 05:01:10;;;;;;;;;;;;;;;6.89;100.00;99839.06;5153451;27;872;-72
2023/02/23 05:03:36;;;;;;;;;;;;;;;6.91;100.00;99834.81;5153389;27;820;-73
2023/02/23 05:06:03;;;;;;;;;;;;;;;6.92;100.00;99841.88;5153443;27;785;-73
2023/02/23 05:08:30;;;;;;;;;;;;;;;6.92;100.00;99839.13;5153300;27;861;-71
2023/02/23 05:10:56;;;;;;;;;;;;;;;6.88;100.00;99845.75;5153379;27;865;-72
2023/02/23 05:13:23;;;;;;;;;;;;;;;6.99;100.00;99849.41;5152875;27;1968;-72
2023/02/23 05:15:50;;;;;;;;;;;;;;;7.04;100.00;99857.31;5153376;27;829;-72
2023/02/23 05:18:16;;;;;;;;;;;;;;;7.07;100.00;99862.03;5153300;27;817;-72
2023/02/23 05:20:46;;;;;;;;;;;;;;;7.08;100.00;99863.63;5153061;27;942;-73
2023/02/23 05:23:12;;;;;;;;;;;;;;;7.17;100.00;99868.81;5153256;27;801;-73
2023/02/23 05:25:39;;;;;;;;;;;;;;;7.12;100.00;99869.16;5153234;27;794;-73
2023/02/23 05:28:06;;;;;;;;;;;;;;;7.23;100.00;99877.50;5153154;27;786;-73
2023/02/23 05:30:33;;;;;;;;;;;;;;;7.32;100.00;99878.00;5153398;27;794;-73
2023/02/23 05:32:59;;;;;;;;;;;;;;;7.33;100.00;99885.06;5153033;27;1885;-73
2023/02/23 05:35:26;;;;;;;;;;;;;;;7.45;100.00;99889.50;5155090;27;881;-72
2023/02/23 05:37:52;;;;;;;;;;;;;;;7.44;100.00;99896.94;5157229;27;965;-72
2023/02/23 05:40:29;;;;;;;;;;;;;;;7.51;100.00;99896.22;5157259;27;876;-73
2023/02/23 05:42:58;;;;;;;;;;;;;;;7.47;100.00;99898.19;5157670;27;801;-72
2023/02/23 05:45:24;;;;;;;;;;;;;;;7.52;100.00;99900.56;5157210;27;798;-72
2023/02/23 05:47:51;;;;;;;;;;;;;;;7.56;100.00;99910.44;5157207;27;778;-72
2023/02/23 05:50:18;;;;;;;;;;;;;;;7.61;100.00;99917.53;5157119;27;868;-73
2023/02/23 05:52:44;;;;;;;;;;;;;;;7.63;100.00;99919.91;5157133;27;771;-73
2023/02/23 05:55:11;;;;;;;;;;;;;;;7.65;100.00;99923.09;5157215;27;1858;-73
2023/02/23 05:57:39;;;;;;;;;;;;;;;7.65;100.00;99926.63;5138401;27;1173;-74
2023/02/23 06:00:07;;;;;;;;;;;;;;;7.81;100.00;99926.38;5156912;27;793;-73
2023/02/23 06:02:35;;;;;;;;;;;;;;;7.94;100.00;99935.91;5157045;27;888;-74
2023/02/23 06:05:01;;;;;;;;;;;;;;;8.04;100.00;99939.13;5156599;27;877;-72
2023/02/23 06:07:28;;;;;;;;;;;;;;;8.11;100.00;99941.94;5156766;27;793;-72
2023/02/23 06:09:55;;;;;;;;;;;;;;;8.13;100.00;99937.63;5156629;27;864;-72
2023/02/23 06:12:22;;;;;;;;;;;;;;;8.22;100.00;99948.31;5156620;27;782;-72
2023/02/23 06:14:49;;;;;;;;;;;;;;;8.29;100.00;99944.81;5156283;27;1905;-73
2023/02/23 06:17:17;;;;;;;;;;;;;;;8.44;100.00;99946.50;5156479;27;864;-72
2023/02/23 06:19:43;;;;;;;;;;;;;;;8.57;100.00;99950.50;5156351;27;888;-72
2023/02/23 06:22:10;;;;;;;;;;;;;;;8.53;100.00;99954.41;5137855;27;1047;-72
2023/02/23 06:24:37;;;;;;;;;;;;;;;8.57;100.00;99956.00;5156363;27;880;-72
2023/02/23 06:27:04;;;;;;;;;;;;;;;8.50;100.00;99957.94;5156397;27;1017;-72
2023/02/23 06:29:30;;;;;;;;;;;;;;;8.59;100.00;99959.19;5156381;27;853;-73
2023/02/23 06:31:56;;;;;;;;;;;;;;;8.65;100.00;99958.81;5156354;27;901;-72
2023/02/23 06:34:23;;;;;;;;;;;;;;;8.83;100.00;99956.94;5156394;27;1978;-72
2023/02/23 06:36:49;;;;;;;;;;;;;;;9.05;100.00;99962.56;5156228;27;802;-74
2023/02/23 06:39:16;;;;;;;;;;;;;;;9.15;100.00;99970.06;5111925;28;1316;-73
2023/02/23 06:41:42;;;;;;;;;;;;;;;9.40;100.00;99961.88;5112642;28;1294;-73
2023/02/23 06:44:09;;;;;;;;;;;;;;;9.40;100.00;99961.88;5112524;28;849;-73
2023/02/23 06:46:36;;;;;;;;;;;;;;;9.42;100.00;99969.75;5112111;28;858;-74
2023/02/23 06:49:03;;;;;;;;;;;;;;;9.74;100.00;99967.84;5112437;28;837;-75
2023/02/23 06:51:29;;;;;;;;;;;;;;;9.84;100.00;99973.78;5112276;28;918;-73
2023/02/23 06:53:56;;;;;;;;;;;;;;;9.96;100.00;99970.59;5112679;28;1877;-74
2023/02/23 06:56:22;;;;;;;;;;;;;;;9.78;100.00;99970.59;5112404;28;829;-73
2023/02/23 06:59:32;;;;;;;;;;;;;;;9.68;100.00;99976.91;5112203;28;782;-73
2023/02/23 07:01:56;;;;;;;;;;;;;;;9.77;100.00;99980.06;5110264;28;1306;-74
2023/02/23 07:04:23;;;;;;;;;;;;;;;9.70;100.00;99969.81;5112233;28;955;-74
2023/02/23 07:06:53;;;;;;;;;;;;;;;9.46;100.00;99973.31;5112316;28;878;-73
2023/02/23 07:09:19;;;;;;;;;;;;;;;9.52;100.00;99971.75;5112051;28;1059;-74
2023/02/23 07:11:48;;;;;;;;;;;;;;;9.51;100.00;99973.72;5112064;28;806;-73
2023/02/23 07:14:15;;;;;;;;;;;;;;;9.73;100.00;99977.31;5111291;28;1898;-72
2023/02/23 07:16:42;;;;;;;;;;;;;;;9.84;100.00;99982.06;5132775;27;982;-73
2023/02/23 07:19:08;;;;;;;;;;;;;;;9.97;100.00;99981.25;5152994;27;919;-74
2023/02/23 07:21:34;;;;;;;;;;;;;;;9.93;100.00;99974.16;5153031;27;856;-76
2023/02/23 07:24:04;;;;;;;;;;;;;;;9.65;100.00;99977.69;5153041;27;825;-74
2023/02/23 07:26:34;;;;;;;;;;;;;;;9.94;100.00;99981.25;5153199;27;853;-73
2023/02/23 07:29:02;;;;;;;;;;;;;;;10.19;100.00;99981.25;5152851;27;797;-74
2023/02/23 07:31:28;;;;;;;;;;;;;;;10.18;100.00;99976.94;5152987;27;802;-73
2023/02/23 07:33:54;;;;;;;;;;;;;;;10.01;100.00;99976.53;5152712;27;1917;-72
2023/02/23 07:36:21;;;;;;;;;;;;;;;10.07;100.00;99979.69;5152947;27;813;-74
2023/02/23 07:38:48;;;;;;;;;;;;;;;10.40;100.00;99983.25;5153103;27;904;-73
2023/02/23 07:41:14;;;;;;;;;;;;;;;10.74;100.00;99985.56;5153024;27;794;-73
2023/02/23 07:43:41;;;;;;;;;;;;;;;10.81;100.00;99983.53;5152896;27;874;-75
2023/02/23 07:46:08;;;;;;;;;;;;;;;10.90;100.00;99987.88;5154738;27;997;-74
2023/02/23 07:48:34;;;;;;;;;;;;;;;11.35;100.00;99979.78;5155123;27;836;-73
2023/02/23 07:51:07;;;;;;;;;;;;;;;11.83;100.00;99990.94;5155200;27;829;-73
2023/02/23 08:16:08;;;;;;;;;;;;;;;13.85;93.63;99987.59;6092590;22;1659;-77
2023/02/23 08:18:34;;;;;;;;;;;;;;;13.64;95.05;99987.91;4995333;28;1090;-75
2023/02/23 08:24:37;;;;;;;;;;;;;;;12.45;99.15;99997.59;5012586;28;877;-75
2023/02/23 08:26:38;;;;;;;;;;;;;;;12.35;98.26;100004.00;4996768;28;1093;-76
2023/02/23 08:29:05;;;;;;;;;;;;;;;12.76;99.54;100007.97;4995220;28;1046;-75
2023/02/23 08:31:32;;;;;;;;;;;;;;;13.08;95.40;100002.09;5012934;28;816;-73
2023/02/23 08:33:57;;;;;;;;;;;;;;;12.55;97.40;100007.00;5012653;28;1882;-72
2023/02/23 08:36:27;;;;;;;;;;;;;;;12.16;99.17;100007.34;5012510;28;893;-75
2023/02/23 08:38:53;;;;;;;;;;;;;;;12.41;99.48;100010.69;5012706;28;803;-73
2023/02/23 08:41:20;;;;;;;;;;;;;;;12.44;98.17;100012.66;5012523;28;823;-73
2023/02/23 08:52:15;;;;;;;;;;;;;;;13.41;90.95;100011.59;4990383;28;1363;-76
2023/02/23 09:04:18;;;;;;;;;;;;;;;12.95;92.26;100026.00;4940992;22;1866;-76
2023/02/23 09:07:15;;;;;;;;;;;;;;;13.70;89.70;100025.13;5008262;28;959;-75
2023/02/23 09:10:28;;;;;;;;;;;;;;;;;;;;;
2023/02/23 09:13:02;;;;;;;;;;;;;;;13.46;89.36;100038.94;5012790;28;1128;-75
2023/02/23 09:15:31;;;;;;;;;;;;;;;13.32;90.51;100039.09;5012128;28;890;-76
2023/02/23 09:18:01;;;;;;;;;;;;;;;13.87;89.34;100037.19;4994744;28;1233;-76
2023/02/23 09:20:28;;;;;;;;;;;;;;;14.56;84.97;100039.69;4994857;28;1083;-76
2023/02/23 09:22:57;;;;;;;;;;;;;;;14.14;84.36;100039.94;4995115;28;1108;-75
2023/02/23 09:25:24;;;;;;;;;;;;;;;13.87;86.16;100037.19;4994850;28;1222;-74
2023/02/23 09:28:01;;;;;;;;;;;;;;;13.94;87.98;100048.19;4994819;28;791;-75
2023/02/23 09:30:27;;;;;;;;;;;;;;;14.16;85.46;100045.84;5012344;28;780;-74
2023/02/23 09:32:55;;;;;;;;;;;;;;;14.00;83.67;100040.16;5012466;28;890;-74
2023/02/23 09:35:25;;;;;;;;;;;;;;;13.55;85.38;100051.50;5012416;28;792;-74
2023/02/23 09:37:53;;;;;;;;;;;;;;;13.77;85.90;100044.44;5012420;28;819;-74
2023/02/23 10:09:19;;;;;;;;;;;;;;;14.01;75.27;100063.97;5747123;23;1680;-74
2023/02/23 10:11:46;;;;;;;;;;;;;;;13.62;74.57;100057.75;5010233;28;1235;-72
2023/02/23 10:14:12;;;;;;;;;;;;;;;13.07;77.69;100064.31;5051214;28;888;-74
2023/02/23 10:16:57;;;;;;;;;;;;;;;12.93;79.03;100068.06;5049787;28;1085;-75
2023/02/23 10:19:43;;;;;;;;;;;;;;;12.48;80.25;100067.28;5050323;28;1423;-75
2023/02/23 10:22:11;;;;;;;;;;;;;;;12.63;81.51;100063.97;5052554;28;1267;-73
2023/02/23 10:24:46;;;;;;;;;;;;;;;12.75;80.88;100056.34;5053342;28;1965;-74
2023/02/23 10:27:17;;;;;;;;;;;;;;;12.84;79.36;100062.19;5053796;28;1202;-74
2023/02/23 10:29:50;;;;;;;;;;;;;;;12.52;79.76;100060.50;5053402;28;1172;-74
2023/02/23 10:32:22;;;;;;;;;;;;;;;12.46;81.00;100062.94;5054321;28;895;-75
2023/02/23 10:34:52;;;;;;;;;;;;;;;12.52;81.80;100054.16;5053530;28;1198;-73
2023/02/23 10:37:19;;;;;;;;;;;;;;;12.61;80.33;100060.03;5053090;28;814;-74
2023/02/23 10:39:48;;;;;;;;;;;;;;;12.71;80.52;100056.38;5054669;28;908;-74
2023/02/23 10:42:27;;;;;;;;;;;;;;;13.05;79.71;100059.19;5054398;28;834;-74
2023/02/23 10:44:55;;;;;;;;;;;;;;;13.66;77.59;100043.81;5053433;28;1886;-74
2023/02/23 10:47:24;;;;;;;;;;;;;;;14.45;74.72;100054.53;5053156;28;2240;-74
2023/02/23 10:49:52;;;;;;;;;;;;;;;14.65;70.84;100048.25;5053295;28;1241;-75
2023/02/23 10:52:34;;;;;;;;;;;;;;;14.00;72.10;100049.28;5055197;28;870;-74
2023/02/23 10:55:10;;;;;;;;;;;;;;;13.79;73.21;100057.94;5053359;28;1032;-75
2023/02/23 10:57:38;;;;;;;;;;;;;;;13.73;73.86;100056.81;5055935;28;897;-73
2023/02/23 11:12:42;;;;;;;;;;;;;;;13.69;73.29;100051.31;5052504;28;1395;-75
2023/02/23 11:15:24;;;;;;;;;;;;;;;13.73;75.20;100049.25;5052665;28;1179;-75
2023/02/23 11:17:58;;;;;;;;;;;;;;;13.49;73.72;100042.84;5053901;28;875;-75
2023/02/23 11:20:35;;;;;;;;;;;;;;;13.30;75.08;100051.81;5053704;28;834;-73
2023/02/23 11:23:37;;;;;;;;;;;;;;;13.57;73.80;100043.53;5052597;28;1905;-73
2023/02/23 11:26:18;;;;;;;;;;;;;;;14.18;73.08;100042.66;4976561;28;1218;-76
2023/02/23 11:28:45;;;;;;;;;;;;;;;14.47;70.45;100032.63;4975924;28;1307;-74
2023/02/23 11:31:22;;;;;;;;;;;;;;;14.73;69.24;100038.56;4992364;28;851;-73
2023/02/23 11:34:00;;;;;;;;;;;;;;;15.04;69.27;100041.97;4992326;28;1053;-75
2023/02/23 11:36:28;;;;;;;;;;;;;;;15.40;67.35;100029.31;4975813;28;906;-73
2023/02/23 11:39:22;;;;;;;;;;;;;;;14.96;67.02;100042.53;4992075;28;850;-73
2023/02/23 11:42:09;;;;;;;;;;;;;;;14.34;68.71;100039.22;4991035;28;1284;-74
2023/02/23 11:44:35;;;;;;;;;;;;;;;14.20;70.64;100043.81;4988245;28;1878;-75
2023/02/23 11:47:05;;;;;;;;;;;;;;;13.86;70.19;100044.72;4991592;28;989;-75
2023/02/23 11:49:35;;;;;;;;;;;;;;;13.17;72.96;100051.53;4991829;28;850;-75
2023/02/23 11:52:02;;;;;;;;;;;;;;;12.98;76.15;100044.63;4975218;28;1161;-74
2023/02/23 11:54:30;;;;;;;;;;;;;;;12.92;75.83;100040.72;4991426;28;1025;-75
2023/02/23 11:56:57;;;;;;;;;;;;;;;13.01;75.64;100047.34;4991752;28;847;-72
2023/02/23 11:59:27;;;;;;;;;;;;;;;13.64;74.41;100044.22;4991326;28;1217;-73
2023/02/23 12:02:04;;;;;;;;;;;;;;;14.28;71.47;100042.47;5051961;28;1466;-73
2023/02/23 12:04:32;;;;;;;;;;;;;;;13.80;69.93;100051.16;5052554;28;1886;-73
2023/02/23 12:07:21;;;;;;;;;;;;;;;13.21;72.91;100058.63;5052663;28;849;-74
2023/02/23 12:09:50;;;;;;;;;;;;;;;12.64;74.87;100056.44;5053256;28;946;-71
2023/02/23 12:12:20;;;;;;;;;;;;;;;12.40;75.21;100061.00;5052435;28;1268;-72
2023/02/23 12:15:00;;;;;;;;;;;;;;;12.43;75.66;100055.44;5053250;28;989;-73
2023/02/23 12:17:30;;;;;;;;;;;;;;;12.28;77.49;100051.19;5052646;28;814;-74
2023/02/23 12:20:03;;;;;;;;;;;;;;;12.11;76.96;100061.22;5052636;28;1117;-74
2023/02/23 12:22:34;;;;;;;;;;;;;;;12.03;76.65;100065.22;5052480;28;819;-74
2023/02/23 12:25:23;;;;;;;;;;;;;;;11.93;76.70;100071.66;5052536;28;1971;-75
2023/02/23 12:28:08;;;;;;;;;;;;;;;11.78;79.42;100068.94;5051358;28;1229;-75
2023/02/23 12:30:56;;;;;;;;;;;;;;;12.12;77.69;100045.38;5052390;28;857;-73
2023/02/23 12:33:32;;;;;;;;;;;;;;;12.49;75.53;100055.00;5052386;28;861;-72
2023/02/23 12:36:02;;;;;;;;;;;;;;;12.44;74.28;100070.88;5051133;28;1141;-75
2023/02/23 12:38:47;;;;;;;;;;;;;;;12.19;77.10;100071.06;5050752;28;1065;-74
2023/02/23 12:41:17;;;;;;;;;;;;;;;12.29;76.32;100071.38;5052321;28;878;-74
2023/02/23 12:43:50;;;;;;;;;;;;;;;12.54;75.76;100077.50;5050627;28;1874;-75
2023/02/23 12:46:25;;;;;;;;;;;;;;;12.93;75.18;100078.34;5051867;28;846;-74
2023/02/23 12:49:01;;;;;;;;;;;;;;;12.97;73.79;100077.13;5052023;28;838;-74
2023/02/23 12:51:37;;;;;;;;;;;;;;;12.53;73.89;100078.72;5050944;28;1184;-73
2023/02/23 12:54:04;;;;;;;;;;;;;;;12.11;76.25;100077.84;5052241;28;826;-73
2023/02/23 12:56:50;;;;;;;;;;;;;;;12.03;76.98;100082.66;5050446;28;1093;-74
2023/02/23 12:59:24;;;;;;;;;;;;;;;12.35;76.05;100076.06;5051915;28;752;-73
2023/02/23 13:01:58;;;;;;;;;;;;;;;12.42;74.58;100083.56;5051831;28;838;-72
2023/02/23 13:04:41;;;;;;;;;;;;;;;12.35;74.73;100095.47;5050547;28;1941;-73
2023/02/23 13:07:08;;;;;;;;;;;;;;;11.51;78.24;100093.56;5051679;28;893;-74
2023/02/23 13:09:54;;;;;;;;;;;;;;;11.76;79.59;100096.22;5050430;28;1081;-74
2023/02/23 13:12:39;;;;;;;;;;;;;;;12.05;77.55;100090.53;5051525;28;1273;-73
2023/02/23 13:15:05;;;;;;;;;;;;;;;12.27;76.16;100093.97;5051616;28;861;-75
2023/02/23 13:17:31;;;;;;;;;;;;;;;12.58;75.26;100108.00;5051778;28;835;-74
2023/02/23 13:20:03;;;;;;;;;;;;;;;13.18;72.63;100089.97;5051881;28;771;-74
2023/02/23 13:22:36;;;;;;;;;;;;;;;13.12;71.00;100097.19;5051415;28;818;-75
2023/02/23 13:25:17;;;;;;;;;;;;;;;13.14;71.11;100094.75;5051812;28;1969;-74
2023/02/23 13:27:49;;;;;;;;;;;;;;;13.12;71.24;100101.94;5051463;28;881;-72
2023/02/23 13:30:16;;;;;;;;;;;;;;;13.28;70.54;100105.75;5051411;28;808;-74
2023/02/23 13:32:43;;;;;;;;;;;;;;;12.97;70.90;100110.41;5051502;28;794;-74
2023/02/23 13:35:14;;;;;;;;;;;;;;;12.15;72.33;100120.16;5051645;28;810;-74
2023/02/23 13:37:44;;;;;;;;;;;;;;;11.79;74.64;100114.00;5051862;28;768;-74
2023/02/23 13:40:29;;;;;;;;;;;;;;;11.62;74.91;100110.91;5050218;28;1142;-74
2023/02/23 13:43:16;;;;;;;;;;;;;;;11.85;74.69;100117.94;5051793;28;1051;-72
2023/02/23 13:45:52;;;;;;;;;;;;;;;11.81;75.39;100117.16;5050181;28;909;-73
2023/02/23 13:48:30;;;;;;;;;;;;;;;11.69;73.79;100107.31;5051281;28;864;-71
2023/02/23 13:51:04;;;;;;;;;;;;;;;11.41;76.63;100111.00;5051429;28;862;-74
2023/02/23 13:53:41;;;;;;;;;;;;;;;11.28;77.36;100124.47;5051435;28;842;-72
2023/02/23 13:56:17;;;;;;;;;;;;;;;11.44;76.11;100126.81;5052200;28;825;-72
2023/02/23 13:58:46;;;;;;;;;;;;;;;11.63;76.47;100125.56;5054983;28;853;-73
2023/02/23 14:01:21;;;;;;;;;;;;;;;11.95;75.14;100133.75;5055137;28;810;-74
2023/02/23 14:03:57;;;;;;;;;;;;;;;12.18;73.74;100138.78;5054800;28;1933;-72
2023/02/23 14:06:25;;;;;;;;;;;;;;;12.32;72.71;100140.66;5053739;28;1310;-73
2023/02/23 14:21:51;;;;;;;;;;;;;;;10.85;79.60;100156.97;5044144;28;1240;-73
2023/02/23 14:24:19;;;;;;;;;;;;;;;10.84;79.41;100156.19;5053104;28;1914;-72
2023/02/23 14:26:57;;;;;;;;;;;;;;;10.78;80.66;100163.28;5054920;28;817;-73
2023/02/23 14:29:26;;;;;;;;;;;;;;;10.78;80.63;100163.28;5054497;28;794;-74
2023/02/23 14:32:25;;;;;;;;;;;;;;;10.79;79.96;100156.56;5053475;28;1110;-73
2023/02/23 14:34:52;;;;;;;;;;;;;;;10.30;82.71;100155.34;5052975;28;1385;-74
2023/02/23 14:37:31;;;;;;;;;;;;;;;9.87;84.37;100171.75;5054335;28;862;-71
2023/02/23 14:40:11;;;;;;;;;;;;;;;9.55;85.17;100178.69;5054533;28;826;-71
2023/02/23 14:42:39;;;;;;;;;;;;;;;9.38;85.97;100176.63;5054136;28;849;-73
2023/02/23 14:45:27;;;;;;;;;;;;;;;9.26;86.42;100175.00;5052930;28;1948;-73
2023/02/23 14:48:11;;;;;;;;;;;;;;;9.20;86.13;100177.31;5054458;28;869;-73
2023/02/23 14:50:40;;;;;;;;;;;;;;;9.06;86.65;100179.19;5054066;28;822;-72
2023/02/23 14:53:13;;;;;;;;;;;;;;;9.02;87.87;100176.41;5054380;28;853;-72
2023/02/23 14:55:42;;;;;;;;;;;;;;;8.85;89.41;100180.59;5053898;28;904;-71
2023/02/23 14:58:22;;;;;;;;;;;;;;;8.85;89.84;100174.31;5053888;28;818;-72
2023/02/23 15:00:50;;;;;;;;;;;;;;;8.74;91.59;100182.47;5054325;28;810;-71
2023/02/23 15:03:17;;;;;;;;;;;;;;;8.57;93.45;100176.44;5053753;28;1953;-73
2023/02/23 15:05:45;;;;;;;;;;;;;;;8.42;95.18;100184.94;5053861;28;818;-72
2023/02/23 15:08:14;;;;;;;;;;;;;;;8.20;95.66;100181.94;5053486;28;966;-73
2023/02/23 15:10:43;;;;;;;;;;;;;;;7.97;97.67;100185.63;5052396;28;1161;-74
2023/02/23 15:13:11;;;;;;;;;;;;;;;7.77;99.92;100184.19;5052299;28;1224;-74
2023/02/23 15:15:44;;;;;;;;;;;;;;;7.61;100.00;100189.88;5052860;28;802;-75
2023/02/23 15:18:19;;;;;;;;;;;;;;;7.42;100.00;100187.25;5052782;28;1133;-75
2023/02/23 15:20:47;;;;;;;;;;;;;;;7.24;100.00;100203.50;5053447;28;1344;-74
2023/02/23 15:23:16;;;;;;;;;;;;;;;7.14;100.00;100202.97;5053571;28;1911;-75
2023/02/23 15:25:52;;;;;;;;;;;;;;;7.03;100.00;100202.00;5052331;28;864;-75
2023/02/23 15:28:24;;;;;;;;;;;;;;;6.97;100.00;100208.97;5052305;28;1172;-74
2023/02/23 15:30:52;;;;;;;;;;;;;;;6.86;100.00;100206.06;5052031;28;1113;-73
2023/02/23 15:33:27;;;;;;;;;;;;;;;6.82;100.00;100201.66;5052367;28;1105;-72
2023/02/23 15:36:07;;;;;;;;;;;;;;;6.79;100.00;100205.16;5053742;28;837;-73
2023/02/23 15:38:43;;;;;;;;;;;;;;;6.76;100.00;100209.41;5051964;28;1207;-75
2023/02/23 15:41:31;;;;;;;;;;;;;;;6.70;100.00;100214.44;5052057;28;1099;-75
2023/02/23 15:47:12;;;;;;;;;;;;;;;6.78;100.00;100220.03;5053361;28;980;-76
2023/02/23 15:49:45;;;;;;;;;;;;;;;6.81;100.00;100216.56;5053585;28;798;-76
2023/02/23 15:52:18;;;;;;;;;;;;;;;6.81;100.00;100211.09;5052138;28;1209;-76
2023/02/23 15:54:51;;;;;;;;;;;;;;;6.83;100.00;100223.28;5053210;28;830;-77
2023/02/23 16:00:50;;;;;;;;;;;;;;;6.78;100.00;100226.31;5053093;28;636;-76
2023/02/23 16:03:25;;;;;;;;;;;;;;;6.80;100.00;100231.47;5051870;28;1944;-75
2023/02/23 16:05:58;;;;;;;;;;;;;;;6.76;100.00;100231.38;5072692;28;865;-76
2023/02/23 16:14:22;;;;;;;;;;;;;;;6.73;100.00;100243.13;5138808;22;2033;-76
2023/02/23 16:16:51;;;;;;;;;;;;;;;6.78;100.00;100244.78;5052196;28;938;-75
2023/02/23 16:19:19;;;;;;;;;;;;;;;6.81;100.00;100242.09;5051960;28;822;-76
2023/02/23 16:21:52;;;;;;;;;;;;;;;6.85;100.00;100242.94;5052732;28;743;-76
2023/02/23 16:24:21;;;;;;;;;;;;;;;6.88;100.00;100244.94;5052365;28;1910;-75
2023/02/23 16:26:56;;;;;;;;;;;;;;;6.86;100.00;100257.47;5052641;28;799;-77
2023/02/23 16:29:42;;;;;;;;;;;;;;;6.80;100.00;100256.97;5034554;28;1276;-75
2023/02/23 16:32:16;;;;;;;;;;;;;;;6.77;100.00;100263.22;5034473;28;1201;-75
2023/02/23 16:34:53;;;;;;;;;;;;;;;6.78;100.00;100266.75;5052169;28;791;-75